Terminal Aerodrome Forecast
Issued by NWS

Home | Current Version | Previous Version | Text Only | Print | Product List | Glossary Off
Versions: 1 2 3 4 5 6 7 8 9 10 11 12 13 14 15 16 17 18

000
FTUS43 KGRB 102330
TAFATW
TAF
KATW 102330Z 1100/1124 29004KT P6SM SCT025 OVC040
      TEMPO 1100/1102 BKN025
     FM110400 27002KT P6SM SCT040 OVC090
     FM110900 18005KT 2SM -SHSN OVC025
     FM111200 19006KT 1 1/2SM -SHSN OVC012
     FM112100 32006KT 4SM -SHSN BKN015=

USA.gov is the U.S. government's official web portal to all federal, state and local government web resources and services.